createdAt,value
2024-02-15T00:01:01.777Z,-18412.22
2024-02-15T00:04:04.852Z,-18409.63
2024-02-15T00:07:07.477Z,-18409.34
2024-02-15T00:10:10.716Z,-18407.56
2024-02-15T00:13:14.355Z,-18406.88
2024-02-15T00:16:17.505Z,-18407.41
2024-02-15T00:19:20.344Z,-18409.34
2024-02-15T00:22:23.264Z,-18409.47
2024-02-15T00:25:27.137Z,-18411.12
2024-02-15T00:28:29.985Z,-18413.47
2024-02-15T00:31:32.722Z,-18411.41
2024-02-15T00:34:35.620Z,-18411.12
2024-02-15T00:37:38.828Z,-18411.12
2024-02-15T00:40:41.887Z,-18411.69
2024-02-15T00:43:44.587Z,-18412.22
2024-02-15T00:46:49.008Z,-18413.59
2024-02-15T00:49:51.952Z,-18414.84
2024-02-15T00:52:54.965Z,-18414.84
2024-02-15T00:55:57.537Z,-18414.56
2024-02-15T00:59:04.516Z,-18413.19
2024-02-15T01:02:07.160Z,-18414.69
2024-02-15T01:05:11.321Z,-18415.09
2024-02-15T01:08:14.199Z,-18412.63
2024-02-15T01:11:17.119Z,-18410.84
2024-02-15T01:14:19.768Z,-18411.69
2024-02-15T01:17:22.585Z,-18410.84
2024-02-15T01:20:25.329Z,-18411.25
2024-02-15T01:23:28.398Z,-18411.25
2024-02-15T01:26:30.980Z,-18409.63
2024-02-15T01:29:34.219Z,-18407.69
2024-02-15T01:32:37.986Z,-18411.12
2024-02-15T01:35:40.783Z,-18412.09
2024-02-15T01:38:43.636Z,-18412.09
2024-02-15T01:41:52.264Z,-18411.81
2024-02-15T01:44:55.413Z,-18412.50
2024-02-15T01:47:58.409Z,-18411.81
2024-02-15T01:51:01.132Z,-18411.53
2024-02-15T01:54:04.934Z,-18411.12
2024-02-15T01:57:08.525Z,-18411.41
2024-02-15T02:00:14.046Z,-18410.72
2024-02-15T02:03:17.776Z,-18411.00
2024-02-15T02:06:20.638Z,-18410.84
2024-02-15T02:09:23.600Z,-18408.09
2024-02-15T02:12:28.745Z,-18406.31
2024-02-15T02:15:33.353Z,-18404.66
2024-02-15T02:18:36.709Z,-18405.63
2024-02-15T02:21:41.183Z,-18403.84
2024-02-15T02:25:09.808Z,-18402.19
2024-02-15T02:28:13.296Z,-18401.09
2024-02-15T02:31:16.388Z,-18399.03
2024-02-15T02:34:20.689Z,-18395.34
2024-02-15T02:37:23.438Z,-18392.16
2024-02-15T02:40:26.276Z,-18391.75
2024-02-15T02:43:28.763Z,-18394.66
2024-02-15T02:46:31.607Z,-18396.28
2024-02-15T02:49:36.677Z,-18397.25
2024-02-15T02:52:40.297Z,-18397.81
2024-02-15T02:55:43.720Z,-18397.81
2024-02-15T02:58:46.492Z,-18397.81
2024-02-15T03:01:49.723Z,-18398.22
2024-02-15T03:04:54.707Z,-18397.66
2024-02-15T03:07:57.930Z,-18398.09
2024-02-15T03:11:00.828Z,-18397.81
2024-02-15T03:14:05.640Z,-18397.53
2024-02-15T03:17:09.491Z,-18396.69
2024-02-15T03:20:21.508Z,-18397.53
2024-02-15T03:23:24.536Z,-18395.88
2024-02-15T03:26:34.879Z,-18393.97
2024-02-15T03:29:37.777Z,-18391.22
2024-02-15T03:32:41.730Z,-18390.09
2024-02-15T03:35:44.681Z,-18390.25
2024-02-15T03:38:48.082Z,-18390.38
2024-02-15T03:41:51.961Z,-18390.38
2024-02-15T03:44:55.675Z,-18391.63
2024-02-15T03:47:58.684Z,-18394.50
2024-02-15T03:51:02.942Z,-18394.78
2024-02-15T03:54:05.925Z,-18394.22
2024-02-15T03:57:09.036Z,-18393.97
2024-02-15T04:00:12.748Z,-18395.06
2024-02-15T04:03:15.937Z,-18395.75
2024-02-15T04:06:18.917Z,-18397.13
2024-02-15T04:09:21.817Z,-18398.09
2024-02-15T04:12:24.379Z,-18398.75
2024-02-15T04:15:27.342Z,-18399.31
2024-02-15T04:18:33.261Z,-18397.81
2024-02-15T04:21:36.181Z,-18399.03
2024-02-15T04:24:40.934Z,-18401.09
2024-02-15T04:27:50.887Z,-18402.47
2024-02-15T04:30:54.027Z,-18403.03
2024-02-15T04:33:58.091Z,-18401.25
2024-02-15T04:37:01.005Z,-18401.09
2024-02-15T04:40:11.525Z,-18401.09
2024-02-15T04:43:16.798Z,-18400.97
2024-02-15T04:46:23.006Z,-18401.66
2024-02-15T04:49:25.607Z,-18402.75
2024-02-15T04:52:28.459Z,-18402.75
2024-02-15T04:55:32.504Z,-18401.25
2024-02-15T04:58:37.751Z,-18402.34
2024-02-15T05:01:41.381Z,-18402.75
2024-02-15T05:04:44.246Z,-18402.63
2024-02-15T05:07:46.946Z,-18403.56
2024-02-15T05:10:49.857Z,-18402.88
2024-02-15T05:13:52.441Z,-18403.28
2024-02-15T05:16:55.320Z,-18404.41
2024-02-15T05:20:00.933Z,-18405.91
2024-02-15T05:23:04.039Z,-18404.41
2024-02-15T05:26:07.484Z,-18404.41
2024-02-15T05:29:12.440Z,-18404.00
2024-02-15T05:32:18.582Z,-18403.56
2024-02-15T05:35:21.489Z,-18403.16
2024-02-15T05:38:24.007Z,-18402.19
2024-02-15T05:41:27.151Z,-18403.28
2024-02-15T05:44:29.816Z,-18404.41
2024-02-15T05:47:32.775Z,-18404.41
2024-02-15T05:50:35.589Z,-18404.25
2024-02-15T05:53:38.858Z,-18404.81
2024-02-15T05:56:44.060Z,-18405.22
2024-02-15T05:59:47.114Z,-18406.47
2024-02-15T06:02:51.241Z,-18406.88
2024-02-15T06:05:59.684Z,-18405.34
2024-02-15T06:09:04.133Z,-18405.78
2024-02-15T06:12:07.624Z,-18405.91
2024-02-15T06:15:16.698Z,-18408.25
2024-02-15T06:18:29.920Z,-18407.97
2024-02-15T06:21:32.642Z,-18410.03
2024-02-15T06:24:35.660Z,-18409.75
2024-02-15T06:27:42.007Z,-18412.22
2024-02-15T06:31:03.656Z,-18413.31
2024-02-15T06:34:24.750Z,-18413.59
2024-02-15T06:37:56.939Z,-18415.38
2024-02-15T06:40:59.642Z,-18417.16
2024-02-15T06:44:02.743Z,-18419.09
2024-02-15T06:47:05.409Z,-18417.72
2024-02-15T06:50:10.504Z,-18419.38
2024-02-15T06:53:13.708Z,-18421.56
2024-02-15T06:56:16.527Z,-18421.28
2024-02-15T06:59:20.559Z,-18421.97
2024-02-15T07:02:24.292Z,-18424.03
2024-02-15T07:05:29.200Z,-18427.06
2024-02-15T07:08:35.448Z,-18427.75
2024-02-15T07:11:38.418Z,-18428.84
2024-02-15T07:14:41.349Z,-18432.81
2024-02-15T07:17:44.401Z,-18433.22
2024-02-15T07:20:47.866Z,-18431.16
2024-02-15T07:23:50.512Z,-18433.66
2024-02-15T07:26:56.445Z,-18435.16
2024-02-15T07:29:59.122Z,-18433.78
2024-02-15T07:33:03.634Z,-18435.16
2024-02-15T07:36:06.888Z,-18434.47
2024-02-15T07:39:14.297Z,-18435.16
2024-02-15T07:42:17.716Z,-18431.87
2024-02-15T07:45:20.685Z,-18432.69
2024-02-15T07:48:23.502Z,-18433.38
2024-02-15T07:51:26.742Z,-18436.94
2024-02-15T07:54:31.027Z,-18437.75
2024-02-15T07:57:34.026Z,-18434.47
2024-02-15T08:00:36.739Z,-18436.81
2024-02-15T08:03:43.978Z,-18439.41
2024-02-15T08:06:46.722Z,-18436.81
2024-02-15T08:09:51.900Z,-18439.53
2024-02-15T08:12:55.095Z,-18442.69
2024-02-15T08:15:57.929Z,-18444.63
2024-02-15T08:19:02.800Z,-18448.47
2024-02-15T08:22:07.151Z,-18452.03
2024-02-15T08:25:14.082Z,-18453.00
2024-02-15T08:28:17.055Z,-18456.84
2024-02-15T08:31:20.758Z,-18457.53
2024-02-15T08:34:23.653Z,-18459.56
2024-02-15T08:37:26.309Z,-18463.97
2024-02-15T08:40:29.820Z,-18465.75
2024-02-15T08:43:35.267Z,-18464.78
2024-02-15T08:46:38.676Z,-18468.34
2024-02-15T08:49:41.757Z,-18470.13
2024-02-15T08:52:44.703Z,-18471.38
2024-02-15T08:55:47.308Z,-18473.00
2024-02-15T08:58:50.427Z,-18479.72
2024-02-15T09:01:54.683Z,-18481.25
2024-02-15T09:04:57.456Z,-18476.03
2024-02-15T09:08:00.178Z,-18471.78
2024-02-15T09:11:05.628Z,-18478.91
2024-02-15T09:14:11.034Z,-18485.75
2024-02-15T09:17:14.884Z,-18487.69
2024-02-15T09:20:21.425Z,-18492.63
2024-02-15T09:23:24.876Z,-18494.94
2024-02-15T09:26:28.889Z,-18497.53
2024-02-15T09:29:33.834Z,-18499.06
2024-02-15T09:32:37.627Z,-18498.09
2024-02-15T09:35:40.753Z,-18502.47
2024-02-15T09:38:43.599Z,-18508.66
2024-02-15T09:41:46.611Z,-18509.06
2024-02-15T09:44:49.381Z,-18513.72
2024-02-15T09:47:54.140Z,-18516.31
2024-02-15T09:50:58.785Z,-18517.97
2024-02-15T09:54:02.381Z,-18515.63
2024-02-15T09:57:05.512Z,-18517.41
2024-02-15T10:00:09.293Z,-18519.06
2024-02-15T10:03:17.307Z,-18526.03
2024-02-15T10:06:21.703Z,-18527.69
2024-02-15T10:09:31.775Z,-18525.06
2024-02-15T10:12:40.286Z,-18528.91
2024-02-15T10:15:44.509Z,-18527.69
2024-02-15T10:18:48.780Z,-18532.88
2024-02-15T10:21:58.589Z,-18534.09
2024-02-15T10:25:14.825Z,-18536.56
2024-02-15T10:28:28.545Z,-18536.72
2024-02-15T10:31:33.028Z,-18543.28
2024-02-15T10:34:37.904Z,-18549.72
2024-02-15T10:37:40.599Z,-18551.63
2024-02-15T10:40:44.185Z,-18556.28
2024-02-15T10:43:49.013Z,-18560.38
2024-02-15T10:46:53.885Z,-18558.88
2024-02-15T10:49:56.660Z,-18560.50
2024-02-15T10:53:00.616Z,-18556.28
2024-02-15T10:56:32.608Z,-18550.25
2024-02-15T10:59:39.326Z,-18547.25
2024-02-15T11:03:09.042Z,-18546.28
2024-02-15T11:06:13.092Z,-18554.63
2024-02-15T11:09:16.407Z,-18561.19
2024-02-15T11:12:19.964Z,-18567.47
2024-02-15T11:15:37.933Z,-18568.03
2024-02-15T11:18:50.213Z,-18564.06
2024-02-15T11:21:58.228Z,-18560.66
2024-02-15T11:25:04.448Z,-18571.19
2024-02-15T11:28:28.521Z,-18566.25
2024-02-15T11:31:55.695Z,-18571.03
2024-02-15T11:35:12.415Z,-18562.84
2024-02-15T11:38:29.335Z,-18570.63
2024-02-15T11:41:32.268Z,-18574.88
2024-02-15T11:44:35.174Z,-18580.34
2024-02-15T11:47:43.742Z,-18578.84
2024-02-15T11:50:47.742Z,-18588.94
2024-02-15T11:54:09.937Z,-18594.28
2024-02-15T11:57:23.410Z,-18593.44
2024-02-15T12:01:04.517Z,-18586.63
2024-02-15T12:04:26.124Z,-18577.59
2024-02-15T12:07:48.635Z,-18580.75
2024-02-15T12:11:20.324Z,-18589.63
2024-02-15T12:14:41.707Z,-18583.88
2024-02-15T12:18:03.375Z,-18582.25
2024-02-15T12:21:07.347Z,-18587.44
2024-02-15T12:24:10.365Z,-18585.53
2024-02-15T12:27:14.577Z,-18585.94
2024-02-15T12:30:22.718Z,-18592.78
2024-02-15T12:33:25.761Z,-18593.19
2024-02-15T12:36:29.338Z,-18590.59
2024-02-15T12:39:33.200Z,-18588.41
2024-02-15T12:42:40.063Z,-18585.53
2024-02-15T12:45:43.542Z,-18587.31
2024-02-15T12:48:46.686Z,-18591.53
2024-02-15T12:51:54.575Z,-18596.72
2024-02-15T12:55:12.607Z,-18603.44
2024-02-15T12:58:17.041Z,-18602.19
2024-02-15T13:01:21.748Z,-18597.69
2024-02-15T13:04:29.318Z,-18601.25
2024-02-15T13:07:32.306Z,-18598.66
2024-02-15T13:10:34.839Z,-18594.81
2024-02-15T13:13:38.702Z,-18594.41
2024-02-15T13:16:41.532Z,-18591.41
2024-02-15T13:19:50.358Z,-18589.22
2024-02-15T13:22:53.649Z,-18582.53
2024-02-15T13:25:58.631Z,-18578.84
2024-02-15T13:29:01.278Z,-18576.78
2024-02-15T13:32:04.644Z,-18581.84
2024-02-15T13:35:14.526Z,-18579.25
2024-02-15T13:38:24.335Z,-18574.72
2024-02-15T13:41:27.992Z,-18570.75
2024-02-15T13:44:31.678Z,-18565.84
2024-02-15T13:47:34.471Z,-18573.22
2024-02-15T13:50:38.585Z,-18579.25
2024-02-15T13:53:41.386Z,-18580.59
2024-02-15T13:56:45.210Z,-18581.69
2024-02-15T13:59:47.772Z,-18583.75
2024-02-15T14:02:50.941Z,-18581.44
2024-02-15T14:05:53.996Z,-18580.59
2024-02-15T14:08:56.657Z,-18584.72
2024-02-15T14:11:59.640Z,-18579.50
2024-02-15T14:15:04.208Z,-18577.59
2024-02-15T14:18:08.482Z,-18577.47
2024-02-15T14:21:11.963Z,-18576.22
2024-02-15T14:24:15.100Z,-18576.78
2024-02-15T14:27:19.101Z,-18572.69
2024-02-15T14:30:40.428Z,-18572.41
2024-02-15T14:33:43.171Z,-18569.94
2024-02-15T14:36:46.388Z,-18568.59
2024-02-15T14:39:49.015Z,-18568.03
2024-02-15T14:42:56.786Z,-18563.38
2024-02-15T14:46:02.506Z,-18557.78
2024-02-15T14:49:05.973Z,-18556.53
2024-02-15T14:52:08.839Z,-18554.38
2024-02-15T14:55:11.692Z,-18548.47
2024-02-15T14:58:14.927Z,-18544.50
2024-02-15T15:01:17.921Z,-18545.31
2024-02-15T15:04:20.545Z,-18540.25
2024-02-15T15:07:42.032Z,-18536.84
2024-02-15T15:11:06.746Z,-18533.44
2024-02-15T15:14:09.993Z,-18536.16
2024-02-15T15:17:13.348Z,-18530.81
2024-02-15T15:20:18.083Z,-18528.78
2024-02-15T15:23:21.200Z,-18528.22
2024-02-15T15:26:24.397Z,-18525.06
2024-02-15T15:29:27.273Z,-18525.91
2024-02-15T15:32:31.537Z,-18528.38
2024-02-15T15:35:35.568Z,-18529.47
2024-02-15T15:38:38.535Z,-18527.00
2024-02-15T15:41:41.668Z,-18523.84
2024-02-15T15:44:44.696Z,-18522.75
2024-02-15T15:47:47.311Z,-18520.69
2024-02-15T15:50:50.404Z,-18518.22
2024-02-15T15:53:53.113Z,-18516.88
2024-02-15T15:56:57.598Z,-18518.38
2024-02-15T16:00:00.668Z,-18515.09
2024-02-15T16:03:06.335Z,-18513.44
2024-02-15T16:06:09.705Z,-18513.31
2024-02-15T16:09:12.721Z,-18513.03
2024-02-15T16:12:19.965Z,-18512.47
2024-02-15T16:15:22.711Z,-18509.47
2024-02-15T16:18:25.846Z,-18507.97
2024-02-15T16:21:28.684Z,-18509.19
2024-02-15T16:24:33.213Z,-18508.66
2024-02-15T16:27:36.359Z,-18507.00
2024-02-15T16:30:39.319Z,-18506.44
2024-02-15T16:33:42.811Z,-18506.72
2024-02-15T16:36:50.118Z,-18508.09
2024-02-15T16:39:53.310Z,-18505.91
2024-02-15T16:42:58.922Z,-18505.06
2024-02-15T16:46:04.770Z,-18504.12
2024-02-15T16:49:07.915Z,-18504.12
2024-02-15T16:52:10.813Z,-18504.94
2024-02-15T16:55:13.673Z,-18501.78
2024-02-15T16:58:18.990Z,-18501.53
2024-02-15T17:01:22.436Z,-18502.34
2024-02-15T17:04:27.164Z,-18503.31
2024-02-15T17:07:31.498Z,-18501.53
2024-02-15T17:10:34.941Z,-18503.44
2024-02-15T17:13:42.189Z,-18501.94
2024-02-15T17:16:44.808Z,-18501.78
2024-02-15T17:19:47.815Z,-18500.44
2024-02-15T17:22:51.092Z,-18498.38
2024-02-15T17:25:55.089Z,-18497.69
2024-02-15T17:29:01.849Z,-18498.91
2024-02-15T17:32:05.046Z,-18497.69
2024-02-15T17:35:09.322Z,-18497.53
2024-02-15T17:38:15.535Z,-18498.09
2024-02-15T17:41:18.201Z,-18497.53
2024-02-15T17:44:21.101Z,-18495.91
2024-02-15T17:47:25.064Z,-18495.75
2024-02-15T17:50:28.511Z,-18495.75
2024-02-15T17:53:31.171Z,-18496.31
2024-02-15T17:56:34.028Z,-18495.50
2024-02-15T17:59:36.553Z,-18495.50
2024-02-15T18:02:39.872Z,-18495.06
2024-02-15T18:05:47.829Z,-18494.94
2024-02-15T18:08:51.393Z,-18492.19
2024-02-15T18:11:54.622Z,-18491.09
2024-02-15T18:14:57.842Z,-18489.19
2024-02-15T18:18:00.987Z,-18484.66
2024-02-15T18:21:03.979Z,-18480.16
2024-02-15T18:24:07.474Z,-18475.06
2024-02-15T18:27:10.216Z,-18471.66
2024-02-15T18:30:17.715Z,-18468.63
2024-02-15T18:33:20.426Z,-18466.72
2024-02-15T18:36:23.831Z,-18466.03
2024-02-15T18:39:29.413Z,-18464.66
2024-02-15T18:42:32.560Z,-18463.16
2024-02-15T18:45:36.214Z,-18460.81
2024-02-15T18:48:41.372Z,-18459.84
2024-02-15T18:51:45.905Z,-18458.62
2024-02-15T18:54:48.799Z,-18459.16
2024-02-15T18:57:51.497Z,-18457.94
2024-02-15T19:00:58.293Z,-18457.38
2024-02-15T19:04:01.705Z,-18457.09
2024-02-15T19:07:04.682Z,-18457.09
2024-02-15T19:10:08.537Z,-18457.38
2024-02-15T19:13:11.629Z,-18457.53
2024-02-15T19:16:19.973Z,-18457.66
2024-02-15T19:19:23.097Z,-18457.25
2024-02-15T19:22:25.738Z,-18456.00
2024-02-15T19:25:28.601Z,-18453.53
2024-02-15T19:28:31.245Z,-18450.66
2024-02-15T19:31:37.525Z,-18448.75
2024-02-15T19:34:40.871Z,-18447.09
2024-02-15T19:37:43.923Z,-18443.25
2024-02-15T19:40:47.876Z,-18439.00
2024-02-15T19:43:53.128Z,-18436.53
2024-02-15T19:46:55.792Z,-18435.97
2024-02-15T19:49:58.683Z,-18435.97
2024-02-15T19:53:01.371Z,-18437.22
2024-02-15T19:56:05.245Z,-18439.00
2024-02-15T19:59:08.147Z,-18440.50
2024-02-15T20:02:11.017Z,-18441.19
2024-02-15T20:05:14.116Z,-18442.69
2024-02-15T20:08:16.983Z,-18444.47
2024-02-15T20:11:24.496Z,-18446.00
2024-02-15T20:14:29.548Z,-18447.63
2024-02-15T20:17:35.861Z,-18450.38
2024-02-15T20:20:38.917Z,-18450.78
2024-02-15T20:23:42.270Z,-18451.88
2024-02-15T20:26:49.206Z,-18451.63
2024-02-15T20:29:55.006Z,-18451.06
2024-02-15T20:32:57.989Z,-18450.53
2024-02-15T20:36:01.126Z,-18450.78
2024-02-15T20:39:03.857Z,-18451.34
2024-02-15T20:42:07.289Z,-18449.56
2024-02-15T20:45:10.290Z,-18448.59
2024-02-15T20:48:13.403Z,-18448.06
2024-02-15T20:51:16.153Z,-18448.59
2024-02-15T20:54:19.204Z,-18447.22
2024-02-15T20:57:21.921Z,-18445.16
2024-02-15T21:00:25.439Z,-18445.16
2024-02-15T21:03:28.169Z,-18444.63
2024-02-15T21:06:36.195Z,-18445.16
2024-02-15T21:09:39.588Z,-18445.84
2024-02-15T21:12:42.703Z,-18445.59
2024-02-15T21:15:45.331Z,-18444.75
2024-02-15T21:18:49.627Z,-18444.06
2024-02-15T21:21:52.339Z,-18444.06
2024-02-15T21:24:55.247Z,-18443.53
2024-02-15T21:27:57.952Z,-18442.84
2024-02-15T21:31:01.748Z,-18442.69
2024-02-15T21:34:09.392Z,-18443.38
2024-02-15T21:37:14.938Z,-18443.94
2024-02-15T21:40:18.010Z,-18445.31
2024-02-15T21:43:20.850Z,-18445.72
2024-02-15T21:46:23.478Z,-18446.28
2024-02-15T21:49:26.444Z,-18446.41
2024-02-15T21:52:29.082Z,-18443.94
2024-02-15T21:55:31.874Z,-18444.47
2024-02-15T21:58:34.488Z,-18443.66
2024-02-15T22:01:40.376Z,-18444.34
2024-02-15T22:04:43.775Z,-18444.75
2024-02-15T22:07:46.420Z,-18444.91
2024-02-15T22:10:50.475Z,-18443.78
2024-02-15T22:13:53.243Z,-18444.34
2024-02-15T22:16:56.127Z,-18444.22
2024-02-15T22:19:58.704Z,-18444.91
2024-02-15T22:23:03.497Z,-18446.69
2024-02-15T22:26:15.634Z,-18449.56
2024-02-15T22:29:18.956Z,-18450.53
2024-02-15T22:32:23.137Z,-18451.88
2024-02-15T22:35:26.138Z,-18452.16
2024-02-15T22:38:28.662Z,-18451.63
2024-02-15T22:41:32.040Z,-18453.25
2024-02-15T22:44:35.725Z,-18453.81
2024-02-15T22:47:38.761Z,-18454.38
2024-02-15T22:50:44.360Z,-18454.63
2024-02-15T22:53:47.307Z,-18454.78
2024-02-15T22:56:49.871Z,-18454.91
2024-02-15T22:59:53.186Z,-18456.69
2024-02-15T23:02:55.953Z,-18458.06
2024-02-15T23:05:59.737Z,-18459.56
2024-02-15T23:09:02.399Z,-18458.47
2024-02-15T23:12:05.747Z,-18458.47
2024-02-15T23:15:08.669Z,-18459.56
2024-02-15T23:18:12.083Z,-18458.34
2024-02-15T23:21:14.874Z,-18458.75
2024-02-15T23:24:18.927Z,-18458.75
2024-02-15T23:27:21.553Z,-18458.34
2024-02-15T23:30:24.400Z,-18459.72
2024-02-15T23:33:28.159Z,-18460.00
2024-02-15T23:36:50.147Z,-18459.44
2024-02-15T23:40:11.087Z,-18458.75
2024-02-15T23:43:14.172Z,-18457.66
2024-02-15T23:46:16.790Z,-18458.75
2024-02-15T23:49:19.865Z,-18457.53
2024-02-15T23:52:23.580Z,-18457.94
2024-02-15T23:55:26.918Z,-18456.97
2024-02-15T23:58:31.638Z,-18456.28
